Time;durP1;ratioP1;P1;durP2;ratioP2;P2;SDS_P1;SDS_P2;PMS_P1;PMS_P2;Temp;Humidity;BMP_temperature;BMP_pressure;BME280_temperature;BME280_humidity;BME280_pressure;Samples;Min_cycle;Max_cycle;Signal;HPM_P1;HPM_P2
2023/09/24 00:02:20;;;;;;;19.47;9.77;;;;;;;;;;4994002;28;20656;-68
2023/09/24 00:04:46;;;;;;;12.70;9.67;;;;;;;;;;4976596;28;20555;-67
2023/09/24 00:07:14;;;;;;;14.87;9.80;;;;;;;;;;4976400;28;20298;-67
2023/09/24 00:09:40;;;;;;;17.70;10.10;;;;;;;;;;4994464;28;20634;-67
2023/09/24 00:12:06;;;;;;;14.70;10.63;;;;;;;;;;4994091;28;20183;-67
2023/09/24 00:14:32;;;;;;;13.43;9.50;;;;;;;;;;4994244;28;20172;-68
2023/09/24 00:16:58;;;;;;;14.63;10.40;;;;;;;;;;4993970;28;20205;-69
2023/09/24 00:19:24;;;;;;;15.53;10.07;;;;;;;;;;4993978;28;20255;-67
2023/09/24 00:21:51;;;;;;;11.77;10.00;;;;;;;;;;4994127;28;20176;-68
2023/09/24 00:24:17;;;;;;;15.20;10.67;;;;;;;;;;4994400;28;20662;-71
2023/09/24 00:26:43;;;;;;;13.87;10.70;;;;;;;;;;4977372;28;20234;-67
2023/09/24 00:29:10;;;;;;;13.27;10.37;;;;;;;;;;4995071;28;20204;-67
2023/09/24 00:31:36;;;;;;;12.70;9.97;;;;;;;;;;4994314;28;20708;-67
2023/09/24 00:34:02;;;;;;;11.87;10.17;;;;;;;;;;4993961;28;20185;-67
2023/09/24 00:36:28;;;;;;;16.70;9.53;;;;;;;;;;4994311;28;20200;-67
2023/09/24 00:38:54;;;;;;;14.10;10.30;;;;;;;;;;4994053;28;20235;-66
2023/09/24 00:41:20;;;;;;;16.30;10.00;;;;;;;;;;5022989;23;20232;-70
2023/09/24 00:43:46;;;;;;;17.37;9.90;;;;;;;;;;5013549;28;20626;-70
2023/09/24 00:46:14;;;;;;;16.03;10.47;;;;;;;;;;5013264;28;20326;-70
2023/09/24 00:48:40;;;;;;;13.60;10.00;;;;;;;;;;5013152;28;20545;-70
2023/09/24 00:51:19;;;;;;;14.07;10.67;;;;;;;;;;5011736;28;20199;-70
2023/09/24 00:53:46;;;;;;;15.07;10.73;;;;;;;;;;5012060;28;20229;-70
2023/09/24 00:56:13;;;;;;;12.57;10.20;;;;;;;;;;5013407;28;20176;-70
2023/09/24 00:58:39;;;;;;;17.30;10.53;;;;;;;;;;5013280;28;20180;-70
2023/09/24 01:01:06;;;;;;;13.20;10.37;;;;;;;;;;5013374;28;20270;-70
2023/09/24 01:03:32;;;;;;;12.30;10.10;;;;;;;;;;5015816;28;20175;-70
2023/09/24 01:05:58;;;;;;;12.37;9.93;;;;;;;;;;5015867;28;20207;-70
2023/09/24 01:08:25;;;;;;;17.07;10.73;;;;;;;;;;5017301;28;20642;-70
2023/09/24 01:10:52;;;;;;;13.80;10.70;;;;;;;;;;5017499;28;20242;-70
2023/09/24 01:13:23;;;;;;;16.10;10.57;;;;;;;;;;5016716;28;20588;-70
2023/09/24 01:15:49;;;;;;;14.07;10.90;;;;;;;;;;5015920;28;20176;-70
2023/09/24 01:18:16;;;;;;;13.80;10.60;;;;;;;;;;5016404;28;20210;-70
2023/09/24 01:20:42;;;;;;;13.43;9.80;;;;;;;;;;5016636;28;20179;-70
2023/09/24 01:23:14;;;;;;;14.20;10.30;;;;;;;;;;5016323;28;20259;-70
2023/09/24 01:25:40;;;;;;;13.17;9.47;;;;;;;;;;5016247;28;20168;-70
2023/09/24 01:28:07;;;;;;;13.03;9.87;;;;;;;;;;5016593;28;20642;-70
2023/09/24 01:30:33;;;;;;;13.97;10.23;;;;;;;;;;5016609;28;20524;-70
2023/09/24 01:32:59;;;;;;;16.63;10.73;;;;;;;;;;5014855;28;20699;-70
2023/09/24 01:35:26;;;;;;;13.70;10.93;;;;;;;;;;5016474;28;20234;-70
2023/09/24 01:37:52;;;;;;;15.07;10.17;;;;;;;;;;5016413;28;20674;-70
2023/09/24 01:40:21;;;;;;;13.40;10.63;;;;;;;;;;5016096;28;20190;-70
2023/09/24 01:42:47;;;;;;;19.83;11.57;;;;;;;;;;5014674;28;20273;-70
2023/09/24 01:45:16;;;;;;;14.33;10.97;;;;;;;;;;5015538;28;20184;-70
2023/09/24 01:47:44;;;;;;;15.20;10.77;;;;;;;;;;5015892;28;20209;-70
2023/09/24 01:50:10;;;;;;;16.20;10.60;;;;;;;;;;5016183;28;20172;-70
2023/09/24 01:52:37;;;;;;;14.13;11.20;;;;;;;;;;5015732;28;20198;-70
2023/09/24 01:55:03;;;;;;;15.40;10.53;;;;;;;;;;5016060;28;20198;-70
2023/09/24 01:57:29;;;;;;;17.33;11.50;;;;;;;;;;5016092;28;20230;-70
2023/09/24 02:00:11;;;;;;;16.17;11.07;;;;;;;;;;5016345;28;20231;-70
2023/09/24 02:02:38;;;;;;;18.03;12.03;;;;;;;;;;5014625;28;20576;-70
2023/09/24 02:05:06;;;;;;;18.43;11.80;;;;;;;;;;5015734;28;20183;-70
2023/09/24 02:07:32;;;;;;;16.20;11.67;;;;;;;;;;5014280;28;20214;-70
2023/09/24 02:09:58;;;;;;;14.50;11.40;;;;;;;;;;5014346;28;20184;-70
2023/09/24 02:12:25;;;;;;;16.60;11.30;;;;;;;;;;5015493;28;20196;-70
2023/09/24 02:14:52;;;;;;;16.60;12.27;;;;;;;;;;5014173;28;20176;-70
2023/09/24 02:17:18;;;;;;;15.63;11.27;;;;;;;;;;5015411;28;20187;-70
2023/09/24 02:19:44;;;;;;;13.07;11.13;;;;;;;;;;5015768;28;20259;-70
2023/09/24 02:22:11;;;;;;;14.37;11.97;;;;;;;;;;5015485;28;20239;-70
2023/09/24 02:24:40;;;;;;;15.20;11.37;;;;;;;;;;5014091;28;20191;-70
2023/09/24 02:27:07;;;;;;;14.83;11.60;;;;;;;;;;5015583;28;20203;-70
2023/09/24 02:29:33;;;;;;;18.13;12.63;;;;;;;;;;5015215;28;20168;-70
2023/09/24 02:31:59;;;;;;;18.60;13.20;;;;;;;;;;5013887;28;20262;-70
2023/09/24 02:34:25;;;;;;;15.73;13.87;;;;;;;;;;5013819;28;20561;-70
2023/09/24 02:36:53;;;;;;;17.47;13.43;;;;;;;;;;5015178;28;20176;-70
2023/09/24 02:39:22;;;;;;;19.17;12.63;;;;;;;;;;5013648;28;20658;-70
2023/09/24 02:41:49;;;;;;;22.30;13.70;;;;;;;;;;5014918;28;20215;-70
2023/09/24 02:44:17;;;;;;;16.73;13.60;;;;;;;;;;5013653;28;20711;-70
2023/09/24 02:46:44;;;;;;;18.60;13.27;;;;;;;;;;5015007;28;20227;-70
2023/09/24 02:49:10;;;;;;;19.80;12.07;;;;;;;;;;5014934;28;20654;-70
2023/09/24 02:51:36;;;;;;;22.57;13.80;;;;;;;;;;5014900;28;20196;-70
2023/09/24 02:54:02;;;;;;;19.10;12.70;;;;;;;;;;5013427;28;20179;-70
2023/09/24 02:56:28;;;;;;;22.97;13.57;;;;;;;;;;5014972;28;20597;-70
2023/09/24 02:58:55;;;;;;;20.10;13.10;;;;;;;;;;5013369;28;20188;-70
2023/09/24 03:01:21;;;;;;;19.17;12.13;;;;;;;;;;5013238;28;20234;-70
2023/09/24 03:03:50;;;;;;;16.57;12.97;;;;;;;;;;5013182;28;20183;-70
2023/09/24 03:06:17;;;;;;;25.87;13.23;;;;;;;;;;5013354;28;20561;-70
2023/09/24 03:08:43;;;;;;;18.43;12.33;;;;;;;;;;5014509;28;20183;-70
2023/09/24 03:11:14;;;;;;;19.57;12.40;;;;;;;;;;5014337;28;20195;-70
2023/09/24 03:13:40;;;;;;;15.90;12.17;;;;;;;;;;5014328;28;20222;-70
2023/09/24 03:16:07;;;;;;;12.87;11.17;;;;;;;;;;5014171;28;20186;-70
2023/09/24 03:18:33;;;;;;;17.43;12.37;;;;;;;;;;5014295;28;20176;-70
2023/09/24 03:20:59;;;;;;;19.03;12.07;;;;;;;;;;5014086;28;20577;-70
2023/09/24 03:23:25;;;;;;;17.33;10.70;;;;;;;;;;5014227;28;20544;-70
2023/09/24 03:25:51;;;;;;;16.77;11.37;;;;;;;;;;5013656;28;20187;-69
2023/09/24 03:28:17;;;;;;;15.97;11.60;;;;;;;;;;5014378;28;20526;-70
2023/09/24 03:30:43;;;;;;;19.77;11.87;;;;;;;;;;5012548;28;20186;-70
2023/09/24 03:33:09;;;;;;;17.27;11.23;;;;;;;;;;5012660;28;20183;-70
2023/09/24 03:35:35;;;;;;;15.73;11.17;;;;;;;;;;5012585;28;20179;-70
2023/09/24 03:38:01;;;;;;;17.43;11.60;;;;;;;;;;5012589;28;20223;-70
2023/09/24 03:40:28;;;;;;;21.27;12.13;;;;;;;;;;5012562;28;20227;-70
2023/09/24 03:42:54;;;;;;;14.40;11.80;;;;;;;;;;5012432;28;20215;-70
2023/09/24 03:45:23;;;;;;;20.47;12.17;;;;;;;;;;5013866;28;20186;-70
2023/09/24 03:47:49;;;;;;;17.43;11.53;;;;;;;;;;5013681;28;20254;-70
2023/09/24 03:50:17;;;;;;;20.47;12.33;;;;;;;;;;5013733;28;20184;-70
2023/09/24 03:52:47;;;;;;;16.03;11.47;;;;;;;;;;5012369;28;20694;-70
2023/09/24 03:55:15;;;;;;;18.77;10.90;;;;;;;;;;5012438;28;20182;-70
2023/09/24 03:57:41;;;;;;;14.50;11.03;;;;;;;;;;5012352;28;20653;-70
2023/09/24 04:00:15;;;;;;;19.07;12.07;;;;;;;;;;5013534;28;20187;-70
2023/09/24 04:02:43;;;;;;;15.77;11.13;;;;;;;;;;5013555;28;20678;-70
2023/09/24 04:05:13;;;;;;;17.93;10.53;;;;;;;;;;5013703;28;20179;-70
2023/09/24 04:07:40;;;;;;;17.60;10.60;;;;;;;;;;5012175;28;20696;-70
2023/09/24 04:10:06;;;;;;;15.77;10.63;;;;;;;;;;5013505;28;20176;-70
2023/09/24 04:12:35;;;;;;;16.47;11.30;;;;;;;;;;5013318;28;20572;-70
2023/09/24 04:15:06;;;;;;;19.23;12.47;;;;;;;;;;5013297;28;20176;-70
2023/09/24 04:17:32;;;;;;;23.20;14.10;;;;;;;;;;5013766;28;20160;-70
2023/09/24 04:19:58;;;;;;;23.87;16.97;;;;;;;;;;5012064;28;20183;-70
2023/09/24 04:22:24;;;;;;;21.50;14.57;;;;;;;;;;5013325;28;20231;-70
2023/09/24 04:24:51;;;;;;;18.03;12.87;;;;;;;;;;5013237;28;20212;-70
2023/09/24 04:27:17;;;;;;;16.10;11.13;;;;;;;;;;5013138;28;20570;-70
2023/09/24 04:29:43;;;;;;;16.17;9.63;;;;;;;;;;5011923;28;20186;-70
2023/09/24 04:32:09;;;;;;;17.17;9.70;;;;;;;;;;5013094;28;20676;-70
2023/09/24 04:34:35;;;;;;;15.33;9.20;;;;;;;;;;5011871;28;20561;-70
2023/09/24 04:37:01;;;;;;;14.00;9.03;;;;;;;;;;5013681;28;20179;-70
2023/09/24 04:39:28;;;;;;;12.67;8.43;;;;;;;;;;5017127;28;20595;-70
2023/09/24 04:41:54;;;;;;;12.53;9.07;;;;;;;;;;5015771;28;20603;-70
2023/09/24 04:44:20;;;;;;;15.57;8.73;;;;;;;;;;5015853;28;20176;-70
2023/09/24 04:46:46;;;;;;;15.60;8.80;;;;;;;;;;5017389;28;20669;-70
2023/09/24 04:49:12;;;;;;;13.27;8.07;;;;;;;;;;5017102;28;20681;-70
2023/09/24 04:51:38;;;;;;;16.10;8.23;;;;;;;;;;5015631;28;20661;-70
2023/09/24 04:54:04;;;;;;;15.03;8.53;;;;;;;;;;5015530;28;20661;-70
2023/09/24 04:56:30;;;;;;;14.43;8.40;;;;;;;;;;5016790;28;20211;-70
2023/09/24 04:58:56;;;;;;;16.23;8.00;;;;;;;;;;5015553;28;20180;-70
2023/09/24 05:01:22;;;;;;;12.73;7.87;;;;;;;;;;5016692;28;20203;-70
2023/09/24 05:03:49;;;;;;;17.27;8.53;;;;;;;;;;5017199;28;20202;-70
2023/09/24 05:06:15;;;;;;;13.63;8.63;;;;;;;;;;5015375;28;20226;-70
2023/09/24 05:08:41;;;;;;;17.07;9.10;;;;;;;;;;5016589;28;20630;-70
2023/09/24 05:11:10;;;;;;;15.13;9.07;;;;;;;;;;5015283;28;20633;-70
2023/09/24 05:13:36;;;;;;;17.70;9.70;;;;;;;;;;5016567;28;20264;-70
2023/09/24 05:16:02;;;;;;;14.97;9.73;;;;;;;;;;5015342;28;20632;-70
2023/09/24 05:18:28;;;;;;;17.43;9.73;;;;;;;;;;5015247;28;20237;-70
2023/09/24 05:20:54;;;;;;;15.93;9.77;;;;;;;;;;5015115;28;20183;-70
2023/09/24 05:23:21;;;;;;;15.33;9.40;;;;;;;;;;5016458;28;20180;-70
2023/09/24 05:25:47;;;;;;;14.33;9.20;;;;;;;;;;5015020;28;20642;-70
2023/09/24 05:28:14;;;;;;;18.70;9.87;;;;;;;;;;5016583;28;20521;-70
2023/09/24 05:30:40;;;;;;;16.70;10.00;;;;;;;;;;5016293;28;20255;-71
2023/09/24 05:33:06;;;;;;;18.13;10.27;;;;;;;;;;5014877;28;20212;-70
2023/09/24 05:35:33;;;;;;;10.93;9.40;;;;;;;;;;5016249;28;20251;-70
2023/09/24 05:37:58;;;;;;;12.10;9.63;;;;;;;;;;5016059;28;20176;-70
2023/09/24 05:40:24;;;;;;;17.73;9.77;;;;;;;;;;5016210;28;20180;-70
2023/09/24 05:42:50;;;;;;;17.80;9.47;;;;;;;;;;5015322;28;20242;-70
2023/09/24 05:45:16;;;;;;;15.50;10.47;;;;;;;;;;5016470;28;20184;-70
2023/09/24 05:47:42;;;;;;;15.43;10.07;;;;;;;;;;5015897;28;20548;-70
2023/09/24 05:50:09;;;;;;;17.07;10.43;;;;;;;;;;5015424;28;20222;-70
2023/09/24 05:52:35;;;;;;;14.60;10.03;;;;;;;;;;5015736;28;20621;-70
2023/09/24 05:55:01;;;;;;;11.47;9.40;;;;;;;;;;5014486;28;20184;-70
2023/09/24 05:57:27;;;;;;;14.60;8.50;;;;;;;;;;5014438;28;20245;-70
2023/09/24 05:59:56;;;;;;;14.93;10.03;;;;;;;;;;5015739;28;20176;-70
2023/09/24 06:02:25;;;;;;;14.93;9.53;;;;;;;;;;5015508;28;20195;-70
2023/09/24 06:04:51;;;;;;;18.63;9.57;;;;;;;;;;5014394;28;20560;-70
2023/09/24 06:07:17;;;;;;;12.53;8.77;;;;;;;;;;5015431;28;20203;-70
2023/09/24 06:09:43;;;;;;;13.63;8.97;;;;;;;;;;5015528;28;20255;-70
2023/09/24 06:12:09;;;;;;;12.93;9.17;;;;;;;;;;5015421;28;20207;-70
2023/09/24 06:14:35;;;;;;;16.10;8.40;;;;;;;;;;5015736;28;20194;-70
2023/09/24 06:17:02;;;;;;;20.43;8.70;;;;;;;;;;5015547;28;20269;-71
2023/09/24 06:19:28;;;;;;;11.07;7.97;;;;;;;;;;5015424;28;20182;-70
2023/09/24 06:21:54;;;;;;;15.33;8.10;;;;;;;;;;5015753;28;20586;-70
2023/09/24 06:24:21;;;;;;;11.30;7.93;;;;;;;;;;5015600;28;20206;-70
2023/09/24 06:26:47;;;;;;;12.90;8.50;;;;;;;;;;5014244;28;20204;-70
2023/09/24 06:29:14;;;;;;;14.43;8.90;;;;;;;;;;5015195;28;20179;-70
2023/09/24 06:31:40;;;;;;;15.27;8.97;;;;;;;;;;5015067;28;20217;-70
2023/09/24 06:34:06;;;;;;;11.43;7.70;;;;;;;;;;5015359;28;20176;-70
2023/09/24 06:36:32;;;;;;;11.77;7.50;;;;;;;;;;5013748;28;20598;-70
2023/09/24 06:38:59;;;;;;;13.23;7.97;;;;;;;;;;5015056;28;20187;-70
2023/09/24 06:41:25;;;;;;;10.77;7.10;;;;;;;;;;5014913;28;20639;-70
2023/09/24 06:43:52;;;;;;;16.23;6.83;;;;;;;;;;5013646;28;20183;-70
2023/09/24 06:46:18;;;;;;;20.37;9.93;;;;;;;;;;5015007;28;20203;-70
2023/09/24 06:48:44;;;;;;;16.23;8.70;;;;;;;;;;5014995;28;20179;-71
2023/09/24 06:51:10;;;;;;;11.83;7.77;;;;;;;;;;5013632;28;20286;-70
2023/09/24 06:53:36;;;;;;;19.07;10.03;;;;;;;;;;5014930;28;20172;-70
2023/09/24 06:56:06;;;;;;;18.57;9.23;;;;;;;;;;5014995;28;20172;-70
2023/09/24 06:58:33;;;;;;;14.17;7.93;;;;;;;;;;5014843;28;20200;-70
2023/09/24 07:01:03;;;;;;;10.57;6.87;;;;;;;;;;5029091;23;20231;-69
2023/09/24 07:03:30;;;;;;;15.73;7.33;;;;;;;;;;5014658;28;20176;-69
2023/09/24 07:05:56;;;;;;;11.33;7.03;;;;;;;;;;5013473;28;20187;-69
2023/09/24 07:08:22;;;;;;;11.73;5.90;;;;;;;;;;5015817;28;20179;-71
2023/09/24 07:11:10;;;;;;;9.47;6.23;;;;;;;;;;5026701;28;20192;-69
2023/09/24 07:13:36;;;;;;;10.90;6.43;;;;;;;;;;5025302;28;20179;-69
2023/09/24 07:16:05;;;;;;;10.77;5.70;;;;;;;;;;5015696;28;20180;-70
2023/09/24 07:18:31;;;;;;;8.53;5.60;;;;;;;;;;5014787;28;20184;-69
2023/09/24 07:20:57;;;;;;;10.93;6.13;;;;;;;;;;5016043;28;20577;-69
2023/09/24 07:23:23;;;;;;;14.17;6.30;;;;;;;;;;5015261;28;20176;-70
2023/09/24 07:25:49;;;;;;;9.73;5.27;;;;;;;;;;5013884;28;20207;-69
2023/09/24 07:28:15;;;;;;;7.93;5.20;;;;;;;;;;5013221;28;20234;-70
2023/09/24 07:30:41;;;;;;;8.77;5.63;;;;;;;;;;5013005;28;20196;-70
2023/09/24 07:33:08;;;;;;;10.77;5.83;;;;;;;;;;5014907;28;20553;-70
2023/09/24 07:35:35;;;;;;;18.03;7.90;;;;;;;;;;5014995;28;20684;-70
2023/09/24 07:38:01;;;;;;;18.13;6.83;;;;;;;;;;5014219;28;20226;-70
2023/09/24 07:40:27;;;;;;;10.73;5.90;;;;;;;;;;5015963;28;20203;-70
2023/09/24 07:42:53;;;;;;;11.27;6.00;;;;;;;;;;5020950;28;20183;-70
2023/09/24 07:45:18;;;;;;;48.13;17.33;;;;;;;;;;5020490;28;20243;-70
2023/09/24 07:47:44;;;;;;;43.60;15.33;;;;;;;;;;5013433;28;20207;-70
2023/09/24 07:50:11;;;;;;;11.83;5.53;;;;;;;;;;5014329;28;20214;-69
2023/09/24 07:52:38;;;;;;;12.20;5.70;;;;;;;;;;5012976;28;20323;-69
2023/09/24 07:55:06;;;;;;;9.30;4.57;;;;;;;;;;5014188;28;20657;-69
2023/09/24 07:57:32;;;;;;;10.10;3.97;;;;;;;;;;5012689;28;20191;-70
2023/09/24 07:59:58;;;;;;;10.67;3.57;;;;;;;;;;5013932;28;20256;-69
2023/09/24 08:02:25;;;;;;;9.67;5.57;;;;;;;;;;5013577;28;20646;-69
2023/09/24 08:04:52;;;;;;;7.23;4.40;;;;;;;;;;5014517;28;20172;-70
2023/09/24 08:07:18;;;;;;;8.27;4.57;;;;;;;;;;5013862;28;20568;-70
2023/09/24 08:09:44;;;;;;;8.33;4.40;;;;;;;;;;5013922;28;20203;-70
2023/09/24 08:12:10;;;;;;;12.63;8.40;;;;;;;;;;5013822;28;20203;-70
2023/09/24 08:14:36;;;;;;;13.80;8.60;;;;;;;;;;5014296;28;20661;-70
2023/09/24 08:17:03;;;;;;;11.70;6.73;;;;;;;;;;5013678;28;20262;-69
2023/09/24 08:19:30;;;;;;;12.07;7.13;;;;;;;;;;5013811;28;20203;-69
2023/09/24 08:21:57;;;;;;;18.73;9.60;;;;;;;;;;5013840;28;20175;-70
2023/09/24 08:24:23;;;;;;;14.50;7.43;;;;;;;;;;5012318;28;20180;-69
2023/09/24 08:26:49;;;;;;;11.20;4.10;;;;;;;;;;5012278;28;20270;-70
2023/09/24 08:29:15;;;;;;;6.17;3.23;;;;;;;;;;5012921;28;20175;-70
2023/09/24 08:31:41;;;;;;;8.87;3.40;;;;;;;;;;5012216;28;20194;-70
2023/09/24 08:34:07;;;;;;;7.47;3.57;;;;;;;;;;5013667;28;20267;-69
2023/09/24 08:36:33;;;;;;;9.57;4.87;;;;;;;;;;5013655;28;20176;-69
2023/09/24 08:39:02;;;;;;;18.60;7.90;;;;;;;;;;5013635;28;20186;-69
2023/09/24 08:41:28;;;;;;;13.27;6.83;;;;;;;;;;5013602;28;20204;-70
2023/09/24 08:43:56;;;;;;;14.57;6.93;;;;;;;;;;5012281;28;20194;-70
2023/09/24 08:46:23;;;;;;;13.93;7.53;;;;;;;;;;5013880;28;20215;-69
2023/09/24 08:48:50;;;;;;;13.80;7.90;;;;;;;;;;5013752;28;20180;-69
2023/09/24 08:51:16;;;;;;;12.00;6.13;;;;;;;;;;5012802;28;20203;-73
2023/09/24 08:53:42;;;;;;;9.77;5.00;;;;;;;;;;5014027;28;20176;-72
2023/09/24 08:56:08;;;;;;;10.37;4.60;;;;;;;;;;5013956;28;20187;-70
2023/09/24 08:58:34;;;;;;;10.33;4.33;;;;;;;;;;5014066;28;20183;-72
2023/09/24 09:01:00;;;;;;;11.57;8.13;;;;;;;;;;5013575;28;20716;-70
2023/09/24 09:03:28;;;;;;;14.43;4.07;;;;;;;;;;5013678;28;20176;-70
2023/09/24 09:05:54;;;;;;;13.03;4.40;;;;;;;;;;5013812;28;20263;-70
2023/09/24 09:08:20;;;;;;;11.47;5.53;;;;;;;;;;5013369;28;20184;-71
2023/09/24 09:10:49;;;;;;;17.37;6.30;;;;;;;;;;5011731;28;20207;-70
2023/09/24 09:13:20;;;;;;;16.93;8.50;;;;;;;;;;5013562;28;20172;-71
2023/09/24 09:15:48;;;;;;;19.37;9.40;;;;;;;;;;5012014;28;20199;-70
2023/09/24 09:18:22;;;;;;;21.57;10.10;;;;;;;;;;5012022;28;20622;-69
2023/09/24 09:20:50;;;;;;;19.23;8.47;;;;;;;;;;5013124;28;20199;-70
2023/09/24 09:23:16;;;;;;;14.77;6.83;;;;;;;;;;5013512;28;20172;-71
2023/09/24 09:25:53;;;;;;;9.63;4.77;;;;;;;;;;5016722;28;20204;-71
2023/09/24 09:28:28;;;;;;;16.10;8.67;;;;;;;;;;5016931;28;20179;-69
2023/09/24 09:31:08;;;;;;;15.23;9.37;;;;;;;;;;5015972;28;20246;-70
2023/09/24 09:33:35;;;;;;;20.90;12.30;;;;;;;;;;5017474;28;20230;-70
2023/09/24 09:36:01;;;;;;;13.27;6.37;;;;;;;;;;5015765;28;20176;-70
2023/09/24 09:38:27;;;;;;;15.97;6.30;;;;;;;;;;5016872;28;20172;-70
2023/09/24 09:40:55;;;;;;;13.17;6.83;;;;;;;;;;5015437;28;20749;-70
2023/09/24 09:43:25;;;;;;;28.33;17.17;;;;;;;;;;5016758;28;20190;-70
2023/09/24 09:45:52;;;;;;;16.30;8.53;;;;;;;;;;5026753;28;20178;-71
2023/09/24 09:48:21;;;;;;;18.97;9.30;;;;;;;;;;5030109;28;20180;-71
2023/09/24 09:50:48;;;;;;;25.47;12.80;;;;;;;;;;5028920;28;20204;-70
2023/09/24 09:53:17;;;;;;;36.50;20.60;;;;;;;;;;5020319;28;20684;-70
2023/09/24 09:55:44;;;;;;;19.87;11.43;;;;;;;;;;5021461;28;20176;-70
2023/09/24 09:58:10;;;;;;;14.90;9.80;;;;;;;;;;5017090;28;20167;-71
2023/09/24 10:00:37;;;;;;;10.00;5.10;;;;;;;;;;5016422;28;20226;-70
2023/09/24 10:03:04;;;;;;;9.97;4.70;;;;;;;;;;5017446;28;20569;-71
2023/09/24 10:05:31;;;;;;;8.03;4.80;;;;;;;;;;5016890;28;20183;-70
2023/09/24 10:07:57;;;;;;;5.93;3.37;;;;;;;;;;5016953;28;20295;-71
2023/09/24 10:10:32;;;;;;;10.20;3.27;;;;;;;;;;5015249;28;20647;-70
2023/09/24 10:12:59;;;;;;;7.67;3.57;;;;;;;;;;5016932;28;20210;-71
2023/09/24 10:15:26;;;;;;;10.03;4.70;;;;;;;;;;5014954;28;20614;-70
2023/09/24 10:18:10;;;;;;;10.37;5.20;;;;;;;;;;5016011;28;20179;-71
2023/09/24 10:20:55;;;;;;;4.70;2.47;;;;;;;;;;5015047;28;20203;-71
2023/09/24 10:23:31;;;;;;;5.53;2.90;;;;;;;;;;5016196;28;20156;-71
2023/09/24 10:26:00;;;;;;;6.50;3.73;;;;;;;;;;5015965;28;20179;-71
2023/09/24 10:28:44;;;;;;;7.97;2.90;;;;;;;;;;5014677;28;20184;-71
2023/09/24 10:31:12;;;;;;;6.90;3.37;;;;;;;;;;5015550;28;20286;-70
2023/09/24 10:33:59;;;;;;;7.10;3.23;;;;;;;;;;5015869;28;20638;-71
2023/09/24 10:36:29;;;;;;;7.50;3.37;;;;;;;;;;5014811;28;20676;-71
2023/09/24 10:39:04;;;;;;;8.27;3.73;;;;;;;;;;5028758;28;20176;-70
2023/09/24 10:41:30;;;;;;;7.03;3.93;;;;;;;;;;5028339;28;20195;-71
2023/09/24 10:44:15;;;;;;;3.37;1.90;;;;;;;;;;5025687;28;20642;-71
2023/09/24 10:46:41;;;;;;;4.13;2.20;;;;;;;;;;5022229;28;20213;-71
2023/09/24 10:49:07;;;;;;;4.87;2.87;;;;;;;;;;5024297;28;20202;-71
2023/09/24 10:51:33;;;;;;;10.57;4.40;;;;;;;;;;5016404;28;20187;-71
2023/09/24 10:54:17;;;;;;;10.77;6.80;;;;;;;;;;5014384;28;20642;-70
2023/09/24 10:56:47;;;;;;;10.37;6.07;;;;;;;;;;5015806;28;20179;-70
2023/09/24 10:59:14;;;;;;;15.20;10.93;;;;;;;;;;5014318;28;20180;-70
2023/09/24 11:01:40;;;;;;;7.53;4.40;;;;;;;;;;5015814;28;20191;-71
2023/09/24 11:04:08;;;;;;;6.13;3.20;;;;;;;;;;5014289;28;20209;-71
2023/09/24 11:06:34;;;;;;;7.13;2.90;;;;;;;;;;5014314;28;20207;-71
2023/09/24 11:09:19;;;;;;;8.27;3.80;;;;;;;;;;5015672;28;20179;-71
2023/09/24 11:11:45;;;;;;;13.07;5.33;;;;;;;;;;5015271;28;20206;-71
2023/09/24 11:14:14;;;;;;;8.17;4.30;;;;;;;;;;5015934;28;20184;-72
2023/09/24 11:16:40;;;;;;;6.53;3.30;;;;;;;;;;5017687;28;20234;-70
2023/09/24 11:19:06;;;;;;;6.07;3.30;;;;;;;;;;5015261;28;20245;-71
2023/09/24 11:21:32;;;;;;;10.83;4.33;;;;;;;;;;5013132;28;20199;-71
2023/09/24 11:23:58;;;;;;;8.00;4.30;;;;;;;;;;5014558;28;20596;-71
2023/09/24 11:26:28;;;;;;;8.00;3.67;;;;;;;;;;5013001;28;20207;-71
2023/09/24 11:28:57;;;;;;;10.37;3.90;;;;;;;;;;5014236;28;20263;-70
2023/09/24 11:31:24;;;;;;;9.90;4.60;;;;;;;;;;5014141;28;20234;-70
2023/09/24 11:33:56;;;;;;;5.53;2.93;;;;;;;;;;5014601;28;20559;-71
2023/09/24 11:36:27;;;;;;;10.53;5.17;;;;;;;;;;5014246;28;20559;-70
2023/09/24 11:39:03;;;;;;;9.47;3.93;;;;;;;;;;5014257;28;20167;-71
2023/09/24 11:41:28;;;;;;;3.83;2.63;;;;;;;;;;5012985;28;20211;-71
2023/09/24 11:43:58;;;;;;;4.80;2.47;;;;;;;;;;5012720;28;20676;-71
2023/09/24 11:46:32;;;;;;;6.47;2.20;;;;;;;;;;5013567;28;20290;-70
2023/09/24 11:49:01;;;;;;;6.17;2.37;;;;;;;;;;5014043;28;20642;-70
2023/09/24 11:51:28;;;;;;;4.43;2.37;;;;;;;;;;5012682;28;20234;-70
2023/09/24 11:53:54;;;;;;;6.00;2.67;;;;;;;;;;5014067;28;20522;-70
2023/09/24 11:56:20;;;;;;;5.73;2.97;;;;;;;;;;5012588;28;20190;-70
2023/09/24 11:58:46;;;;;;;4.13;2.80;;;;;;;;;;5013066;28;20184;-70
2023/09/24 12:01:13;;;;;;;3.97;2.50;;;;;;;;;;5014092;28;20286;-69
2023/09/24 12:03:39;;;;;;;5.27;2.53;;;;;;;;;;5014659;28;20177;-71
2023/09/24 12:06:05;;;;;;;4.10;2.17;;;;;;;;;;5013809;28;20558;-70
2023/09/24 12:08:31;;;;;;;5.03;2.20;;;;;;;;;;5014779;28;20234;-69
2023/09/24 12:10:58;;;;;;;4.33;2.17;;;;;;;;;;5014149;28;20202;-69
2023/09/24 12:13:24;;;;;;;5.43;2.47;;;;;;;;;;5012770;28;20588;-69
2023/09/24 12:15:50;;;;;;;4.77;2.10;;;;;;;;;;5013929;28;20180;-70
2023/09/24 12:18:16;;;;;;;8.33;4.37;;;;;;;;;;5014185;28;20172;-70
2023/09/24 12:20:43;;;;;;;4.03;2.30;;;;;;;;;;5013917;28;20273;-70
2023/09/24 12:23:10;;;;;;;6.37;2.30;;;;;;;;;;5017599;28;20195;-70
2023/09/24 12:25:36;;;;;;;4.00;2.53;;;;;;;;;;5015941;28;20187;-70
2023/09/24 12:28:15;;;;;;;4.80;2.77;;;;;;;;;;5013246;28;20218;-71
2023/09/24 12:30:42;;;;;;;4.80;2.00;;;;;;;;;;5013895;28;20274;-69
2023/09/24 12:33:08;;;;;;;3.30;1.87;;;;;;;;;;5012834;28;20184;-69
2023/09/24 12:35:34;;;;;;;6.97;2.20;;;;;;;;;;5014297;28;20226;-71
2023/09/24 12:38:00;;;;;;;4.10;2.17;;;;;;;;;;5014205;28;20551;-70
2023/09/24 12:40:25;;;;;;;4.30;2.00;;;;;;;;;;5012630;28;20211;-71
2023/09/24 12:42:52;;;;;;;3.13;2.30;;;;;;;;;;5013404;28;20246;-69
2023/09/24 12:45:18;;;;;;;4.73;2.20;;;;;;;;;;5012128;28;20188;-69
2023/09/24 12:47:44;;;;;;;5.33;2.67;;;;;;;;;;5013544;28;20211;-71
2023/09/24 12:50:11;;;;;;;2.43;1.87;;;;;;;;;;5011901;28;20204;-71
2023/09/24 12:52:41;;;;;;;6.40;2.10;;;;;;;;;;5013249;28;20176;-71
2023/09/24 12:55:08;;;;;;;3.17;1.90;;;;;;;;;;5013579;28;20167;-71
2023/09/24 12:57:35;;;;;;;4.00;2.60;;;;;;;;;;5011891;28;20650;-70
2023/09/24 13:00:03;;;;;;;3.13;2.23;;;;;;;;;;5014682;28;20219;-71
2023/09/24 13:02:29;;;;;;;5.57;2.57;;;;;;;;;;5017260;28;20187;-71
2023/09/24 13:04:55;;;;;;;4.97;2.20;;;;;;;;;;5017465;28;20571;-71
2023/09/24 13:07:21;;;;;;;3.33;1.80;;;;;;;;;;5017190;28;20293;-71
2023/09/24 13:09:47;;;;;;;3.07;2.23;;;;;;;;;;5017325;28;20199;-71
2023/09/24 13:12:15;;;;;;;3.83;1.90;;;;;;;;;;5017387;28;20186;-71
2023/09/24 13:14:41;;;;;;;4.37;2.40;;;;;;;;;;5017062;28;20172;-72
2023/09/24 13:17:07;;;;;;;4.27;2.50;;;;;;;;;;5017420;28;20554;-70
2023/09/24 13:19:34;;;;;;;5.53;2.30;;;;;;;;;;5015635;28;20298;-71
2023/09/24 13:22:00;;;;;;;5.73;2.27;;;;;;;;;;5016704;28;20176;-72
2023/09/24 13:24:26;;;;;;;7.53;5.50;;;;;;;;;;5016636;28;20190;-69
2023/09/24 13:26:52;;;;;;;8.03;6.00;;;;;;;;;;5016406;28;20212;-70
2023/09/24 13:29:18;;;;;;;6.97;5.03;;;;;;;;;;5015047;28;20296;-69
2023/09/24 13:31:44;;;;;;;4.77;3.30;;;;;;;;;;5016405;28;20267;-69
2023/09/24 13:34:11;;;;;;;6.33;3.27;;;;;;;;;;5016761;28;20176;-70
2023/09/24 13:36:37;;;;;;;5.53;1.90;;;;;;;;;;5015224;28;20190;-70
2023/09/24 13:39:03;;;;;;;4.20;2.00;;;;;;;;;;5016314;28;20669;-70
2023/09/24 13:41:29;;;;;;;6.03;2.10;;;;;;;;;;5014985;28;20207;-70
2023/09/24 13:43:55;;;;;;;3.60;2.10;;;;;;;;;;5014981;28;20183;-70
2023/09/24 13:46:21;;;;;;;4.47;2.10;;;;;;;;;;5014682;28;20692;-70
2023/09/24 13:48:49;;;;;;;3.83;1.80;;;;;;;;;;5016022;28;20523;-70
2023/09/24 13:51:15;;;;;;;2.97;1.70;;;;;;;;;;5014659;28;20195;-69
2023/09/24 13:53:41;;;;;;;4.10;2.23;;;;;;;;;;5015960;28;20601;-69
2023/09/24 13:56:13;;;;;;;4.53;2.40;;;;;;;;;;5038973;23;20235;-69
2023/09/24 13:58:40;;;;;;;4.67;3.10;;;;;;;;;;5015836;28;20172;-69
2023/09/24 14:01:06;;;;;;;3.33;2.37;;;;;;;;;;4998192;28;20230;-69
2023/09/24 14:03:32;;;;;;;2.57;2.03;;;;;;;;;;4998104;28;20187;-69
2023/09/24 14:05:58;;;;;;;7.13;3.87;;;;;;;;;;4998169;28;20211;-69
2023/09/24 14:13:54;;;;;;;3.43;2.60;;;;;;;;;;5017132;28;20176;-69
2023/09/24 14:16:20;;;;;;;5.33;3.50;;;;;;;;;;5015970;28;20196;-69
2023/09/24 14:18:46;;;;;;;3.43;2.30;;;;;;;;;;4998290;28;20238;-70
2023/09/24 14:21:12;;;;;;;4.43;2.50;;;;;;;;;;4998069;28;20188;-69
2023/09/24 14:23:39;;;;;;;4.97;2.80;;;;;;;;;;4998185;28;20187;-69
2023/09/24 14:26:05;;;;;;;6.93;2.73;;;;;;;;;;4998083;28;20203;-69
2023/09/24 14:28:31;;;;;;;4.63;2.73;;;;;;;;;;5015931;28;20291;-70
2023/09/24 14:31:02;;;;;;;3.10;2.50;;;;;;;;;;5015498;28;20187;-69
2023/09/24 14:33:29;;;;;;;6.20;2.80;;;;;;;;;;5015945;28;20152;-70
2023/09/24 14:35:58;;;;;;;5.13;3.23;;;;;;;;;;4997846;28;20200;-69
2023/09/24 14:38:25;;;;;;;5.57;3.20;;;;;;;;;;4997729;28;20180;-69